createdAt,value
2022-10-17T00:01:06.959Z,95780.13
2022-10-17T00:03:35.149Z,95781.22
2022-10-17T00:06:06.868Z,95777.88
2022-10-17T00:08:34.902Z,95775.97
2022-10-17T00:11:07.792Z,95773.50
2022-10-17T00:13:36.829Z,95762.34
2022-10-17T00:16:05.226Z,95771.81
2022-10-17T00:18:33.259Z,95776.03
2022-10-17T00:21:01.147Z,95778.06
2022-10-17T00:23:30.452Z,95777.91
2022-10-17T00:26:02.110Z,95772.75
2022-10-17T00:28:31.699Z,95777.84
2022-10-17T00:31:01.147Z,95776.72
2022-10-17T00:33:29.813Z,95777.53
2022-10-17T00:36:05.645Z,95764.50
2022-10-17T00:38:33.697Z,95774.03
2022-10-17T00:41:01.797Z,95776.53
2022-10-17T00:43:32.897Z,95776.06
2022-10-17T00:46:01.005Z,95775.41
2022-10-17T00:48:29.184Z,95768.69
2022-10-17T00:50:57.137Z,95779.59
2022-10-17T00:53:25.088Z,95776.06
2022-10-17T00:55:55.245Z,95777.13
2022-10-17T00:58:23.309Z,95773.75
2022-10-17T01:00:52.696Z,95775.84
2022-10-17T01:03:20.779Z,95770.31
2022-10-17T01:05:48.753Z,95780.06
2022-10-17T01:08:16.972Z,95781.03
2022-10-17T01:10:55.972Z,95784.22
2022-10-17T01:13:31.287Z,95788.31
2022-10-17T01:16:10.225Z,95778.47
2022-10-17T01:18:52.531Z,95777.09
2022-10-17T01:21:39.648Z,95768.88
2022-10-17T01:24:43.987Z,95770.50
2022-10-17T01:27:31.044Z,95771.22
2022-10-17T01:30:25.021Z,95768.66
2022-10-17T01:32:58.667Z,95773.00
2022-10-17T01:35:34.128Z,95769.59
2022-10-17T01:38:10.573Z,95763.81
2022-10-17T01:40:43.696Z,95765.84
2022-10-17T01:43:17.580Z,95765.84
2022-10-17T01:45:50.474Z,95769.84
2022-10-17T01:48:24.382Z,95784.63
2022-10-17T01:50:55.888Z,95784.47
2022-10-17T01:53:29.519Z,95774.88
2022-10-17T01:56:01.623Z,95781.44
2022-10-17T01:58:33.827Z,95783.34
2022-10-17T02:01:05.293Z,95791.66
2022-10-17T02:03:36.299Z,95784.75
2022-10-17T02:06:05.416Z,95785.81
2022-10-17T02:08:43.707Z,95786.28
2022-10-17T02:11:16.615Z,95790.03
2022-10-17T02:14:17.077Z,95790.03
2022-10-17T02:16:54.844Z,95788.97
2022-10-17T02:19:50.001Z,95796.88
2022-10-17T02:22:26.285Z,95790.03
2022-10-17T02:25:01.776Z,95794.03
2022-10-17T02:27:43.800Z,95796.94
2022-10-17T02:30:17.611Z,95800.13
2022-10-17T02:32:51.167Z,95798.47
2022-10-17T02:35:22.826Z,95804.16
2022-10-17T02:37:52.917Z,95806.59
2022-10-17T02:40:23.724Z,95810.72
2022-10-17T02:42:54.219Z,95810.13
2022-10-17T02:45:26.344Z,95812.13
2022-10-17T02:48:00.341Z,95818.69
2022-10-17T02:50:39.975Z,95817.06
2022-10-17T02:53:12.877Z,95818.47
2022-10-17T02:55:44.726Z,95816.59
2022-10-17T02:58:17.927Z,95823.59
2022-10-17T03:00:46.513Z,95819.28
2022-10-17T03:03:23.041Z,95821.88
2022-10-17T03:05:52.875Z,95831.13
2022-10-17T03:08:21.358Z,95833.91
2022-10-17T03:10:49.334Z,95834.47
2022-10-17T03:13:17.712Z,95835.78
2022-10-17T03:15:45.722Z,95834.81
2022-10-17T03:18:13.859Z,95833.28
2022-10-17T03:20:42.013Z,95832.19
2022-10-17T03:23:11.328Z,95825.41
2022-10-17T03:25:39.327Z,95838.28
2022-10-17T03:28:07.284Z,95835.00
2022-10-17T03:30:35.355Z,95831.00
2022-10-17T03:33:03.448Z,95836.94
2022-10-17T03:35:31.438Z,95829.75
2022-10-17T03:37:59.383Z,95829.50
2022-10-17T03:40:28.746Z,95835.84
2022-10-17T03:42:57.128Z,95834.91
2022-10-17T03:45:25.205Z,95838.28
2022-10-17T03:47:53.186Z,95840.13
2022-10-17T03:50:21.066Z,95840.97
2022-10-17T03:52:49.343Z,95845.63
2022-10-17T03:55:18.117Z,95855.13
2022-10-17T03:57:47.378Z,95853.81
2022-10-17T04:00:16.155Z,95854.13
2022-10-17T04:02:44.963Z,95854.25
2022-10-17T04:05:13.352Z,95839.31
2022-10-17T04:07:41.333Z,95844.47
2022-10-17T04:10:10.963Z,95855.59
2022-10-17T04:12:43.457Z,95853.75
2022-10-17T04:15:13.552Z,95859.94
2022-10-17T04:17:41.499Z,95859.13
2022-10-17T04:20:10.277Z,95852.53
2022-10-17T04:22:43.832Z,95860.56
2022-10-17T04:25:11.692Z,95856.16
2022-10-17T04:27:39.871Z,95858.50
2022-10-17T04:30:08.896Z,95856.38
2022-10-17T04:32:39.681Z,95865.09
2022-10-17T04:35:08.540Z,95858.06
2022-10-17T04:37:36.497Z,95858.69
2022-10-17T04:40:05.024Z,95860.34
2022-10-17T04:42:33.035Z,95871.25
2022-10-17T04:45:00.952Z,95868.34
2022-10-17T04:47:28.872Z,95875.50
2022-10-17T04:49:58.234Z,95876.91
2022-10-17T04:52:26.716Z,95876.97
2022-10-17T04:54:54.832Z,95875.84
2022-10-17T04:57:23.041Z,95876.16
2022-10-17T04:59:51.128Z,95878.53
2022-10-17T05:02:19.093Z,95875.66
2022-10-17T05:04:47.098Z,95875.66
2022-10-17T05:07:16.462Z,95870.31
2022-10-17T05:09:44.369Z,95887.63
2022-10-17T05:12:12.262Z,95880.63
2022-10-17T05:14:40.256Z,95888.00
2022-10-17T05:17:08.196Z,95892.34
2022-10-17T05:19:36.253Z,95896.25
2022-10-17T05:22:04.246Z,95904.16
2022-10-17T05:24:33.651Z,95907.34
2022-10-17T05:27:01.642Z,95908.59
2022-10-17T05:29:29.554Z,95911.78
2022-10-17T05:31:57.738Z,95909.09
2022-10-17T05:34:25.858Z,95917.66
2022-10-17T05:36:53.793Z,95918.28
2022-10-17T05:39:23.469Z,95913.72
2022-10-17T05:41:52.813Z,95922.97
2022-10-17T05:44:20.836Z,95928.69
2022-10-17T05:46:50.752Z,95924.09
2022-10-17T05:49:32.666Z,95926.25
2022-10-17T05:52:07.407Z,95918.72
2022-10-17T05:54:35.838Z,95930.84
2022-10-17T05:57:05.330Z,95920.03
2022-10-17T05:59:33.363Z,95948.84
2022-10-17T06:02:01.489Z,95944.53
2022-10-17T06:04:29.437Z,95947.06
2022-10-17T06:06:57.378Z,95956.84
2022-10-17T06:09:25.792Z,95945.84
2022-10-17T06:11:53.731Z,95952.22
2022-10-17T06:14:23.099Z,95951.28
2022-10-17T06:16:51.188Z,95948.03
2022-10-17T06:19:19.217Z,95959.09
2022-10-17T06:21:47.164Z,95963.09
2022-10-17T06:24:15.297Z,95969.34
2022-10-17T06:26:43.584Z,95970.16
2022-10-17T06:29:11.717Z,95972.06
2022-10-17T06:31:41.115Z,95980.88
2022-10-17T06:34:09.085Z,95981.00
2022-10-17T06:36:37.042Z,95987.50
2022-10-17T06:39:05.305Z,95987.13
2022-10-17T06:41:33.428Z,95986.00
2022-10-17T06:44:01.475Z,95991.53
2022-10-17T06:46:29.935Z,95993.53
2022-10-17T06:49:00.876Z,95974.25
2022-10-17T06:51:28.764Z,95980.59
2022-10-17T06:53:58.412Z,95983.88
2022-10-17T06:56:26.342Z,95994.59
2022-10-17T06:58:54.791Z,95991.28
2022-10-17T07:01:22.857Z,96000.81
2022-10-17T07:03:50.887Z,95995.88
2022-10-17T07:06:20.247Z,96001.84
2022-10-17T07:08:48.458Z,96001.50
2022-10-17T07:11:18.384Z,95991.94
2022-10-17T07:13:46.775Z,95990.84
2022-10-17T07:16:16.210Z,95996.91
2022-10-17T07:18:44.504Z,95996.19
2022-10-17T07:21:12.407Z,95999.44
2022-10-17T07:23:42.132Z,96003.06
2022-10-17T07:26:13.227Z,95991.63
2022-10-17T07:28:47.226Z,95992.28
2022-10-17T07:31:17.624Z,96007.75
2022-10-17T07:36:19.997Z,96006.53
2022-10-17T07:38:49.319Z,96013.03
2022-10-17T07:41:19.473Z,96018.13
2022-10-17T07:43:49.715Z,96027.72
2022-10-17T07:46:17.779Z,96032.31
2022-10-17T07:48:45.704Z,96022.28
2022-10-17T07:51:13.964Z,96026.53
2022-10-17T07:53:46.390Z,96031.78
2022-10-17T07:56:18.494Z,96031.91
2022-10-17T07:58:48.274Z,96034.56
2022-10-17T08:01:16.408Z,96042.38
2022-10-17T08:03:45.705Z,96045.00
2022-10-17T08:06:14.551Z,96032.81
2022-10-17T08:08:42.787Z,96036.94
2022-10-17T08:11:12.553Z,96032.88
2022-10-17T08:13:42.709Z,96026.31
2022-10-17T08:16:13.030Z,96033.00
2022-10-17T08:18:42.413Z,96026.00
2022-10-17T08:21:11.177Z,96035.44
2022-10-17T08:23:39.108Z,96028.16
2022-10-17T08:26:10.846Z,96020.03
2022-10-17T08:28:39.997Z,96018.50
2022-10-17T08:31:11.773Z,96013.50
2022-10-17T08:33:39.936Z,96022.03
2022-10-17T08:36:09.477Z,96034.59
2022-10-17T08:38:43.119Z,96024.81
2022-10-17T08:41:16.918Z,96027.22
2022-10-17T08:44:04.927Z,96029.69
2022-10-17T08:46:37.511Z,96028.13
2022-10-17T08:49:14.337Z,96034.41
2022-10-17T08:51:49.997Z,96043.50
2022-10-17T08:54:22.285Z,96039.13
2022-10-17T08:56:52.193Z,96046.25
2022-10-17T08:59:24.556Z,96046.50
2022-10-17T09:02:02.616Z,96046.78
2022-10-17T09:04:47.715Z,96045.88
2022-10-17T09:07:23.547Z,96048.69
2022-10-17T09:10:01.323Z,96044.75
2022-10-17T09:12:37.875Z,96043.34
2022-10-17T09:15:35.624Z,96030.31
2022-10-17T09:18:12.789Z,96031.69
2022-10-17T09:20:45.095Z,96025.56
2022-10-17T09:23:17.196Z,96043.28
2022-10-17T09:25:47.376Z,96039.09
2022-10-17T09:28:19.863Z,96045.38
2022-10-17T09:30:50.598Z,96039.38
2022-10-17T09:33:34.549Z,96043.91
2022-10-17T09:36:14.292Z,96032.75
2022-10-17T09:38:45.449Z,96032.94
2022-10-17T09:41:43.646Z,96030.41
2022-10-17T09:44:17.739Z,96032.84
2022-10-17T09:47:05.287Z,96024.75
2022-10-17T09:49:36.361Z,96028.38
2022-10-17T09:52:06.607Z,96028.28
2022-10-17T09:54:43.446Z,96028.16
2022-10-17T09:57:13.269Z,96015.56
2022-10-17T09:59:43.166Z,96017.56
2022-10-17T10:02:18.259Z,96010.59
2022-10-17T10:05:06.859Z,96011.06
2022-10-17T10:07:38.504Z,96003.94
2022-10-17T10:10:09.631Z,96004.75
2022-10-17T10:12:40.222Z,96004.94
2022-10-17T10:15:37.746Z,96009.41
2022-10-17T10:21:11.414Z,96001.94
2022-10-17T10:23:41.220Z,95996.47
2022-10-17T10:26:26.838Z,95999.09
2022-10-17T10:28:59.088Z,95992.88
2022-10-17T10:34:23.766Z,95982.88
2022-10-17T10:37:04.591Z,95984.84
2022-10-17T10:39:38.866Z,95974.72
2022-10-17T10:42:09.309Z,95980.53
2022-10-17T10:44:40.754Z,95984.34
2022-10-17T10:47:17.363Z,95984.88
2022-10-17T10:49:46.840Z,95981.31
2022-10-17T10:52:27.416Z,95963.03
2022-10-17T10:55:08.198Z,95964.28
2022-10-17T10:57:37.957Z,95967.97
2022-10-17T11:00:15.475Z,95964.66
2022-10-17T11:02:49.780Z,95955.72
2022-10-17T11:05:24.062Z,95961.19
2022-10-17T11:08:01.207Z,95948.75
2022-10-17T11:10:36.946Z,95956.13
2022-10-17T11:13:11.893Z,95956.25
2022-10-17T11:15:48.286Z,95951.03
2022-10-17T11:18:25.649Z,95946.13
2022-10-17T11:20:58.176Z,95946.66
2022-10-17T11:23:34.537Z,95944.31
2022-10-17T11:26:08.087Z,95947.34
2022-10-17T11:28:36.044Z,95939.19
2022-10-17T11:31:08.050Z,95928.41
2022-10-17T11:33:45.442Z,95932.84
2022-10-17T11:36:15.205Z,95936.16
2022-10-17T11:38:50.410Z,95936.06
2022-10-17T11:41:22.441Z,95918.91
2022-10-17T11:43:55.682Z,95930.59
2022-10-17T11:46:25.709Z,95928.63
2022-10-17T11:49:12.354Z,95928.28
2022-10-17T11:52:03.246Z,95925.38
2022-10-17T11:54:37.690Z,95927.22
2022-10-17T11:57:28.295Z,95919.94
2022-10-17T12:00:09.752Z,95916.50
2022-10-17T12:02:51.462Z,95918.34
2022-10-17T12:05:30.312Z,95922.53
2022-10-17T12:08:06.828Z,95914.59
2022-10-17T12:10:48.641Z,95909.72
2022-10-17T12:13:56.928Z,95910.91
2022-10-17T12:16:48.449Z,95899.25
2022-10-17T12:19:37.920Z,95910.44
2022-10-17T12:22:18.449Z,95916.31
2022-10-17T12:24:54.124Z,95902.16
2022-10-17T12:27:37.372Z,95903.56
2022-10-17T12:30:18.742Z,95895.97
2022-10-17T12:33:07.395Z,95906.38
2022-10-17T12:35:38.802Z,95899.94
2022-10-17T12:38:25.288Z,95893.72
2022-10-17T12:40:58.976Z,95905.09
2022-10-17T12:43:47.209Z,95899.69
2022-10-17T12:46:47.748Z,95897.47
2022-10-17T12:49:45.554Z,95896.63
2022-10-17T12:52:20.347Z,95888.91
2022-10-17T12:55:00.632Z,95891.69
2022-10-17T12:57:45.464Z,95894.47
2022-10-17T13:00:20.444Z,95887.84
2022-10-17T13:02:53.272Z,95896.94
2022-10-17T13:05:29.798Z,95896.47
2022-10-17T13:08:00.799Z,95887.59
2022-10-17T13:10:33.126Z,95890.03
2022-10-17T13:13:07.828Z,95885.81
2022-10-17T13:15:37.919Z,95886.16
2022-10-17T13:18:07.360Z,95887.03
2022-10-17T13:20:35.413Z,95878.44
2022-10-17T13:23:03.852Z,95882.91
2022-10-17T13:25:31.949Z,95891.97
2022-10-17T13:28:12.715Z,95886.53
2022-10-17T13:30:41.058Z,95890.38
2022-10-17T13:33:33.410Z,95891.59
2022-10-17T13:36:04.050Z,95885.09
2022-10-17T13:38:36.646Z,95876.78
2022-10-17T13:41:34.919Z,95888.81
2022-10-17T13:44:04.003Z,95889.69
2022-10-17T13:46:39.163Z,95890.22
2022-10-17T13:49:19.124Z,95890.16
2022-10-17T13:51:49.129Z,95891.47
2022-10-17T13:54:41.887Z,95892.75
2022-10-17T13:57:20.626Z,95889.47
2022-10-17T13:59:51.920Z,95887.94
2022-10-17T14:02:22.386Z,95890.69
2022-10-17T14:05:16.645Z,95899.00
2022-10-17T14:08:10.813Z,95886.06
2022-10-17T14:10:41.317Z,95893.25
2022-10-17T14:13:18.790Z,95894.41
2022-10-17T14:15:47.710Z,95897.56
2022-10-17T14:18:21.257Z,95893.78
2022-10-17T14:23:42.075Z,95895.16
2022-10-17T14:26:16.716Z,95890.44
2022-10-17T14:28:46.735Z,95900.97
2022-10-17T14:31:31.440Z,95889.34
2022-10-17T14:34:01.006Z,95897.44
2022-10-17T14:36:39.761Z,95895.44
2022-10-17T14:39:17.908Z,95898.19
2022-10-17T14:41:48.477Z,95889.59
2022-10-17T14:44:21.997Z,95898.03
2022-10-17T14:46:54.065Z,95905.75
2022-10-17T14:49:35.644Z,95900.13
2022-10-17T14:52:59.573Z,95908.22
2022-10-17T14:55:35.994Z,95905.56
2022-10-17T14:58:17.199Z,95916.22
2022-10-17T15:00:45.142Z,95918.84
2022-10-17T15:03:13.878Z,95911.13
2022-10-17T15:05:41.871Z,95903.84
2022-10-17T15:08:14.913Z,95912.75
2022-10-17T15:10:43.115Z,95912.34
2022-10-17T15:13:29.031Z,95912.44
2022-10-17T15:15:58.459Z,95917.72
2022-10-17T15:18:26.431Z,95916.91
2022-10-17T15:21:04.571Z,95913.47
2022-10-17T15:23:36.051Z,95916.50
2022-10-17T15:26:03.996Z,95917.91
2022-10-17T15:28:31.872Z,95926.13
2022-10-17T15:30:59.836Z,95918.41
2022-10-17T15:33:27.808Z,95930.09
2022-10-17T15:35:55.745Z,95933.38
2022-10-17T15:38:23.683Z,95930.50
2022-10-17T15:40:53.170Z,95936.13
2022-10-17T15:43:21.070Z,95933.38
2022-10-17T15:45:49.162Z,95939.69
2022-10-17T15:48:21.087Z,95936.78
2022-10-17T15:50:50.341Z,95943.53
2022-10-17T15:53:18.794Z,95943.38
2022-10-17T15:55:50.145Z,95941.59
2022-10-17T15:58:20.663Z,95959.28
2022-10-17T16:00:49.496Z,95963.53
2022-10-17T16:03:17.586Z,95961.97
2022-10-17T16:05:45.551Z,95968.03
2022-10-17T16:08:13.448Z,95968.91
2022-10-17T16:10:42.159Z,95970.03
2022-10-17T16:13:17.544Z,95965.31
2022-10-17T16:15:47.200Z,95979.16
2022-10-17T16:18:15.089Z,95976.19
2022-10-17T16:20:43.147Z,95981.66
2022-10-17T16:23:12.417Z,95982.25
2022-10-17T16:25:41.314Z,95972.63
2022-10-17T16:28:09.619Z,95984.63
2022-10-17T16:30:44.977Z,95985.41
2022-10-17T16:33:14.698Z,95997.97
2022-10-17T16:35:43.260Z,95993.88
2022-10-17T16:38:11.443Z,95999.91
2022-10-17T16:40:40.248Z,95991.63
2022-10-17T16:43:08.563Z,95999.84
2022-10-17T16:45:37.572Z,95999.28
2022-10-17T16:48:05.852Z,96005.53
2022-10-17T16:50:35.732Z,96008.00
2022-10-17T16:53:04.206Z,96010.97
2022-10-17T16:55:32.199Z,96008.84
2022-10-17T16:58:01.557Z,96011.81
2022-10-17T17:00:29.614Z,96019.34
2022-10-17T17:02:57.641Z,96017.88
2022-10-17T17:05:25.600Z,96024.53
2022-10-17T17:07:55.942Z,96033.50
2022-10-17T17:10:23.867Z,96028.88
2022-10-17T17:12:51.844Z,96026.09
2022-10-17T17:15:20.063Z,96030.50
2022-10-17T17:17:55.579Z,96026.25
2022-10-17T17:20:23.985Z,96034.72
2022-10-17T17:22:52.425Z,96039.44
2022-10-17T17:25:22.654Z,96037.84
2022-10-17T17:27:50.579Z,96037.78
2022-10-17T17:30:19.794Z,96038.56
2022-10-17T17:32:47.855Z,96034.94
2022-10-17T17:35:15.949Z,96023.28
2022-10-17T17:37:44.125Z,96043.47
2022-10-17T17:40:12.915Z,96051.47
2022-10-17T17:42:42.874Z,96049.84
2022-10-17T17:45:12.153Z,96051.66
2022-10-17T17:47:40.066Z,96050.94
2022-10-17T17:50:08.740Z,96053.25
2022-10-17T17:52:37.211Z,96053.06
2022-10-17T17:55:05.653Z,96048.59
2022-10-17T17:57:33.733Z,96049.72
2022-10-17T18:00:03.210Z,96057.31
2022-10-17T18:02:31.424Z,96055.59
2022-10-17T18:04:59.531Z,96058.81
2022-10-17T18:07:27.523Z,96055.19
2022-10-17T18:09:57.090Z,96056.19
2022-10-17T18:12:24.999Z,96043.06
2022-10-17T18:14:54.153Z,96055.50
2022-10-17T18:17:23.673Z,96066.38
2022-10-17T18:19:51.978Z,96068.59
2022-10-17T18:22:20.016Z,96065.91
2022-10-17T18:24:47.912Z,96063.47
2022-10-17T18:27:16.227Z,96065.91
2022-10-17T18:29:45.792Z,96061.81
2022-10-17T18:32:14.001Z,96053.63
2022-10-17T18:34:43.439Z,96064.72
2022-10-17T18:37:11.484Z,96068.22
2022-10-17T18:39:39.590Z,96058.28
2022-10-17T18:42:07.967Z,96064.41
2022-10-17T18:44:36.149Z,96068.13
2022-10-17T18:47:04.627Z,96066.06
2022-10-17T18:49:32.859Z,96068.66
2022-10-17T18:52:02.276Z,96067.44
2022-10-17T18:54:32.506Z,96071.31
2022-10-17T18:57:00.738Z,96055.75
2022-10-17T18:59:29.017Z,96078.53
2022-10-17T19:01:57.081Z,96074.63
2022-10-17T19:04:25.121Z,96077.09
2022-10-17T19:06:53.080Z,96083.13
2022-10-17T19:09:22.390Z,96089.97
2022-10-17T19:11:50.268Z,96089.97
2022-10-17T19:14:18.207Z,96092.63
2022-10-17T19:16:47.789Z,96094.59
2022-10-17T19:19:19.328Z,96097.91
2022-10-17T19:21:48.004Z,96097.50
2022-10-17T19:24:19.072Z,96093.97
2022-10-17T19:26:50.834Z,96102.34
2022-10-17T19:29:19.479Z,96099.63
2022-10-17T19:31:49.045Z,96097.44
2022-10-17T19:34:18.086Z,96090.88
2022-10-17T19:36:46.606Z,96092.22
2022-10-17T19:39:17.140Z,96083.63
2022-10-17T19:41:47.456Z,96094.97
2022-10-17T19:44:17.293Z,96096.88
2022-10-17T19:46:46.939Z,96096.63
2022-10-17T19:49:15.377Z,96094.03
2022-10-17T19:51:43.515Z,96102.53
2022-10-17T19:54:11.593Z,96098.81
2022-10-17T19:56:40.423Z,96092.25
2022-10-17T19:59:09.323Z,96100.47
2022-10-17T20:01:39.783Z,96109.38
2022-10-17T20:04:10.741Z,96115.53
2022-10-17T20:06:41.061Z,96106.50
2022-10-17T20:09:12.366Z,96110.19
2022-10-17T20:11:44.123Z,96112.13
2022-10-17T20:14:13.242Z,96111.56
2022-10-17T20:16:44.715Z,96112.97
2022-10-17T20:19:14.556Z,96118.16
2022-10-17T20:21:44.342Z,96121.56
2022-10-17T20:24:14.265Z,96118.28
2022-10-17T20:26:42.734Z,96100.22
2022-10-17T20:29:14.846Z,96105.41
2022-10-17T20:31:45.794Z,96102.97
2022-10-17T20:34:16.462Z,96105.81
2022-10-17T20:36:44.951Z,96097.47
2022-10-17T20:39:14.982Z,96096.25
2022-10-17T20:41:43.728Z,96097.06
2022-10-17T20:44:12.483Z,96092.81
2022-10-17T20:46:52.694Z,96093.34
2022-10-17T20:49:30.201Z,96096.34
2022-10-17T20:51:58.372Z,96095.75
2022-10-17T20:54:27.750Z,96087.91
2022-10-17T20:56:58.627Z,96090.75
2022-10-17T20:59:29.048Z,96096.47
2022-10-17T21:01:57.014Z,96084.94
2022-10-17T21:04:45.310Z,96093.28
2022-10-17T21:07:14.244Z,96093.69
2022-10-17T21:09:42.322Z,96092.28
2022-10-17T21:12:10.265Z,96085.31
2022-10-17T21:14:38.265Z,96098.34
2022-10-17T21:17:06.405Z,96087.09
2022-10-17T21:19:34.915Z,96095.13
2022-10-17T21:22:04.281Z,96090.47
2022-10-17T21:24:34.386Z,96094.63
2022-10-17T21:27:02.486Z,96089.81
2022-10-17T21:29:30.671Z,96081.84
2022-10-17T21:31:58.803Z,96093.22
2022-10-17T21:34:27.847Z,96091.81
2022-10-17T21:36:56.015Z,96074.38
2022-10-17T21:39:24.941Z,96084.63
2022-10-17T21:41:55.153Z,96093.03
2022-10-17T21:44:24.657Z,96086.31
2022-10-17T21:46:53.557Z,96100.41
2022-10-17T21:49:24.509Z,96090.69
2022-10-17T21:51:53.177Z,96088.38
2022-10-17T21:54:23.057Z,96085.84
2022-10-17T21:56:51.513Z,96092.41
2022-10-17T21:59:23.601Z,96085.50
2022-10-17T22:01:51.794Z,96083.50
2022-10-17T22:04:20.732Z,96087.78
2022-10-17T22:06:52.379Z,96082.13
2022-10-17T22:09:22.869Z,96093.66
2022-10-17T22:11:52.680Z,96088.59
2022-10-17T22:14:23.814Z,96083.72
2022-10-17T22:16:52.084Z,96079.16
2022-10-17T22:19:24.791Z,96081.28
2022-10-17T22:21:52.783Z,96073.84
2022-10-17T22:24:22.590Z,96079.03
2022-10-17T22:26:50.998Z,96084.97
2022-10-17T22:29:19.003Z,96083.56
2022-10-17T22:31:48.366Z,96088.16
2022-10-17T22:34:18.115Z,96082.25
2022-10-17T22:36:47.735Z,96089.81
2022-10-17T22:39:15.834Z,96088.16
2022-10-17T22:41:43.727Z,96084.50
2022-10-17T22:44:11.600Z,96082.38
2022-10-17T22:46:39.548Z,96083.31
2022-10-17T22:49:08.866Z,96081.06
2022-10-17T22:51:36.723Z,96082.81
2022-10-17T22:54:04.631Z,96075.75
2022-10-17T22:56:35.228Z,96075.19
2022-10-17T22:59:03.344Z,96079.56
2022-10-17T23:01:31.318Z,96080.50
2022-10-17T23:03:59.302Z,96077.91
2022-10-17T23:06:28.612Z,96080.03
2022-10-17T23:08:56.531Z,96074.97
2022-10-17T23:11:24.557Z,96074.63
2022-10-17T23:13:52.504Z,96073.09
2022-10-17T23:16:20.395Z,96070.38
2022-10-17T23:18:48.324Z,96067.91
2022-10-17T23:21:16.202Z,96076.63
2022-10-17T23:23:45.440Z,96063.59
2022-10-17T23:26:15.315Z,96076.75
2022-10-17T23:28:44.106Z,96053.59
2022-10-17T23:31:14.815Z,96057.72
2022-10-17T23:33:44.967Z,96063.63
2022-10-17T23:36:14.351Z,96060.91
2022-10-17T23:38:43.272Z,96064.56
2022-10-17T23:41:13.264Z,96060.09
2022-10-17T23:43:41.475Z,96059.72
2022-10-17T23:46:10.032Z,96051.16
2022-10-17T23:48:38.641Z,96052.94
2022-10-17T23:51:07.135Z,96041.72
2022-10-17T23:53:34.986Z,96046.78
2022-10-17T23:56:03.097Z,96046.22
2022-10-17T23:58:32.572Z,96039.16
